Flugplatz Reinsdorf

Für EDOD sind keine METAR/TAF Berichte vorhanden.
Es werden die Flugwettermeldungen vom Flugplatz Holzdorf Airport in 14 km Entfernung angezeigt.

Bericht für ETSH

vom 03.12. um 21:20 UTC

Wind 8 kt aus 140°

Sichtweite 10 km oder mehr

gering bewölkt in 4000 ft

Temperatur -2.0°C

Taupunkt -5.0°C

Luftfeuchtigkeit 80%

Luftdruck 1000 hPa

ETSH 032120Z 14008KT 9999 FEW040 M02/M05 Q1000 BLACKBLU+

Prognose für ETSH

vom 03.12. um 14:06 UTC

Zwischen 15:00 UTC und 19:00 UTC

Wind 8 kt aus 150°

Sichtweite 10 km oder mehr

keine signifikanten Wettererscheinungen

aufgebrochene Bewölkung in 3000 ft

aufgebrochene Bewölkung in 8000 ft


Zwischen 19:00 und 21:00 UTC übergehend zu

Wind 7 kt aus 130°

Sichtweite 10 km oder mehr

keine signifikanten Wettererscheinungen

aufgelockert bewölkt in 4000 ft

TAF ETSH 031406Z 0315/0324 15008KT 9999 NSW BKN030 BKN080 BECMG 0319/0321 13007KT 9999 NSW SCT040
Impressum